createdAt,value
2019-03-12T00:00:03.891Z,2.40
2019-03-12T00:02:38.306Z,2.40
2019-03-12T00:08:22.205Z,2.40
2019-03-12T00:10:59.253Z,2.40
2019-03-12T00:13:29.526Z,2.40
2019-03-12T00:16:06.550Z,2.40
2019-03-12T00:18:43.267Z,2.40
2019-03-12T00:21:13.688Z,2.40
2019-03-12T00:23:48.394Z,2.30
2019-03-12T00:26:21.443Z,2.40
2019-03-12T00:28:57.527Z,2.40
2019-03-12T00:31:30.205Z,2.40
2019-03-12T00:34:07.925Z,2.40
2019-03-12T00:36:37.983Z,2.40
2019-03-12T00:39:18.991Z,2.50
2019-03-12T00:41:56.562Z,2.50
2019-03-12T00:44:26.401Z,2.40
2019-03-12T00:46:54.766Z,2.50
2019-03-12T00:49:25.365Z,2.50
2019-03-12T00:51:58.259Z,2.50
2019-03-12T00:54:28.197Z,2.50
2019-03-12T00:57:00.710Z,2.50
2019-03-12T00:59:36.753Z,2.50
2019-03-12T01:02:10.194Z,2.50
2019-03-12T01:04:44.060Z,2.50
2019-03-12T01:07:31.987Z,2.50
2019-03-12T01:10:00.550Z,2.50
2019-03-12T01:12:29.519Z,2.50
2019-03-12T01:14:58.114Z,2.60
2019-03-12T01:17:26.798Z,2.50
2019-03-12T01:19:55.417Z,2.50
2019-03-12T01:22:24.365Z,2.50
2019-03-12T01:24:53.066Z,2.50
2019-03-12T01:27:21.673Z,2.50
2019-03-12T01:29:50.412Z,2.60
2019-03-12T01:32:19.080Z,2.60
2019-03-12T01:34:47.751Z,2.60
2019-03-12T01:37:16.357Z,2.60
2019-03-12T01:39:44.911Z,2.60
2019-03-12T01:42:13.511Z,2.60
2019-03-12T01:44:42.156Z,2.60
2019-03-12T01:47:10.813Z,2.60
2019-03-12T01:49:39.451Z,2.60
2019-03-12T01:52:08.057Z,2.60
2019-03-12T01:54:36.640Z,2.60
2019-03-12T01:57:05.344Z,2.60
2019-03-12T01:59:33.945Z,2.70
2019-03-12T02:02:02.510Z,2.70
2019-03-12T02:04:31.072Z,2.70
2019-03-12T02:06:59.798Z,2.70
2019-03-12T02:09:30.158Z,2.70
2019-03-12T02:11:58.762Z,2.60
2019-03-12T02:14:28.615Z,2.70
2019-03-12T02:16:57.225Z,2.70
2019-03-12T02:19:25.817Z,2.70
2019-03-12T02:21:54.467Z,2.70
2019-03-12T02:24:23.035Z,2.70
2019-03-12T02:26:51.669Z,2.70
2019-03-12T02:29:20.261Z,2.70
2019-03-12T02:31:48.885Z,2.70
2019-03-12T02:34:17.453Z,2.80
2019-03-12T02:36:46.037Z,2.80
2019-03-12T02:39:14.965Z,2.90
2019-03-12T02:41:43.572Z,2.90
2019-03-12T02:44:12.138Z,2.90
2019-03-12T02:46:40.751Z,2.90
2019-03-12T02:49:10.134Z,2.90
2019-03-12T02:51:38.996Z,2.90
2019-03-12T02:54:07.599Z,2.90
2019-03-12T02:56:36.257Z,2.90
2019-03-12T02:59:04.899Z,2.90
2019-03-12T03:01:33.449Z,2.90
2019-03-12T03:04:02.037Z,2.90
2019-03-12T03:06:32.237Z,3.00
2019-03-12T03:09:00.987Z,2.90
2019-03-12T03:11:29.566Z,2.90
2019-03-12T03:13:58.156Z,3.00
2019-03-12T03:16:26.742Z,3.00
2019-03-12T03:18:55.374Z,3.00
2019-03-12T03:21:23.951Z,2.90
2019-03-12T03:23:52.548Z,2.90
2019-03-12T03:26:21.109Z,2.90
2019-03-12T03:28:49.749Z,3.00
2019-03-12T03:31:18.329Z,3.10
2019-03-12T03:33:46.928Z,3.10
2019-03-12T03:36:15.489Z,3.10
2019-03-12T03:38:44.099Z,3.10
2019-03-12T03:41:12.689Z,3.10
2019-03-12T03:43:41.295Z,3.10
2019-03-12T03:46:09.861Z,3.10
2019-03-12T03:48:38.487Z,3.10
2019-03-12T03:51:07.052Z,3.20
2019-03-12T03:53:35.642Z,3.10
2019-03-12T03:56:04.234Z,3.20
2019-03-12T03:58:32.801Z,3.20
2019-03-12T04:01:01.391Z,3.20
2019-03-12T04:03:29.994Z,3.10
2019-03-12T04:05:58.574Z,3.10
2019-03-12T04:08:27.169Z,3.10
2019-03-12T04:10:55.761Z,3.10
2019-03-12T04:13:24.342Z,3.10
2019-03-12T04:15:52.919Z,3.10
2019-03-12T04:18:21.531Z,3.00
2019-03-12T04:20:50.083Z,3.00
2019-03-12T04:23:18.671Z,3.00
2019-03-12T04:25:47.250Z,3.00
2019-03-12T04:28:15.837Z,3.00
2019-03-12T04:30:44.414Z,3.00
2019-03-12T04:33:41.305Z,3.00
2019-03-12T04:36:09.883Z,3.00
2019-03-12T04:38:38.475Z,2.90
2019-03-12T04:41:07.032Z,2.80
2019-03-12T04:43:35.630Z,2.90
2019-03-12T04:46:04.195Z,2.90
2019-03-12T04:48:32.800Z,2.90
2019-03-12T04:51:01.368Z,2.80
2019-03-12T04:53:29.999Z,2.90
2019-03-12T04:55:58.568Z,2.90
2019-03-12T04:58:27.128Z,2.90
2019-03-12T05:00:55.718Z,2.90
2019-03-12T05:03:24.352Z,2.90
2019-03-12T05:05:52.960Z,2.90
2019-03-12T05:08:21.521Z,2.80
2019-03-12T05:10:50.120Z,2.80
2019-03-12T05:13:18.682Z,2.80
2019-03-12T05:15:47.278Z,2.80
2019-03-12T05:18:16.687Z,2.90
2019-03-12T05:20:45.285Z,2.90
2019-03-12T05:23:13.856Z,2.80
2019-03-12T05:25:42.658Z,2.80
2019-03-12T05:28:11.234Z,2.80
2019-03-12T05:30:40.690Z,2.80
2019-03-12T05:33:09.244Z,2.80
2019-03-12T05:35:37.833Z,2.70
2019-03-12T05:38:06.384Z,2.80
2019-03-12T05:40:34.971Z,2.80
2019-03-12T05:43:03.639Z,2.80
2019-03-12T05:45:32.372Z,2.80
2019-03-12T05:48:00.934Z,2.80
2019-03-12T05:50:29.524Z,2.80
2019-03-12T05:53:11.825Z,2.80
2019-03-12T05:55:42.026Z,2.80
2019-03-12T05:58:10.585Z,2.80
2019-03-12T06:00:39.190Z,2.80
2019-03-12T06:03:08.801Z,2.70
2019-03-12T06:05:37.415Z,2.70
2019-03-12T06:08:05.910Z,2.80
2019-03-12T06:10:34.508Z,2.80
2019-03-12T06:13:03.071Z,2.80
2019-03-12T06:15:31.665Z,2.70
2019-03-12T06:18:00.217Z,2.80
2019-03-12T06:20:28.822Z,2.80
2019-03-12T06:22:57.417Z,2.80
2019-03-12T06:25:25.988Z,2.90
2019-03-12T06:27:54.558Z,2.90
2019-03-12T06:30:25.738Z,2.90
2019-03-12T06:32:54.973Z,2.90
2019-03-12T06:35:30.981Z,2.90
2019-03-12T06:38:17.533Z,2.90
2019-03-12T06:40:50.904Z,3.00
2019-03-12T06:43:39.140Z,3.00
2019-03-12T06:46:15.070Z,3.10
2019-03-12T06:48:45.647Z,3.10
2019-03-12T06:51:15.912Z,3.10
2019-03-12T06:53:46.093Z,3.10
2019-03-12T06:56:32.853Z,3.10
2019-03-12T06:59:03.125Z,3.10
2019-03-12T07:01:36.456Z,3.20
2019-03-12T07:04:06.720Z,3.20
2019-03-12T07:06:39.678Z,3.20
2019-03-12T07:09:13.461Z,3.20
2019-03-12T07:11:43.685Z,3.20
2019-03-12T07:14:25.874Z,3.20
2019-03-12T07:17:04.894Z,3.30
2019-03-12T07:19:35.102Z,3.30
2019-03-12T07:22:11.555Z,3.30
2019-03-12T07:24:44.670Z,3.30
2019-03-12T07:27:17.557Z,3.40
2019-03-12T07:29:47.778Z,3.40
2019-03-12T07:32:24.051Z,3.50
2019-03-12T07:34:54.258Z,3.50
2019-03-12T07:37:42.735Z,3.60
2019-03-12T07:40:25.106Z,3.50
2019-03-12T07:43:01.283Z,3.50
2019-03-12T07:45:34.607Z,3.60
2019-03-12T07:48:04.869Z,3.60
2019-03-12T07:50:38.077Z,3.60
2019-03-12T07:53:08.319Z,3.60
2019-03-12T07:55:38.546Z,3.60
2019-03-12T07:58:08.785Z,3.70
2019-03-12T08:00:41.970Z,3.70
2019-03-12T08:03:15.102Z,3.80
2019-03-12T08:05:45.301Z,3.90
2019-03-12T08:08:18.545Z,4.00
2019-03-12T08:10:54.948Z,4.10
2019-03-12T08:13:25.194Z,4.20
2019-03-12T08:16:10.583Z,4.10
2019-03-12T08:18:43.784Z,4.10
2019-03-12T08:21:22.615Z,4.20
2019-03-12T08:24:08.023Z,4.20
2019-03-12T08:26:50.228Z,4.20
2019-03-12T08:29:20.420Z,4.20
2019-03-12T08:32:05.781Z,4.20
2019-03-12T08:34:45.051Z,4.20
2019-03-12T08:37:15.284Z,4.10
2019-03-12T08:39:48.460Z,4.20
2019-03-12T08:42:18.713Z,4.30
2019-03-12T08:45:00.839Z,4.30
2019-03-12T08:47:37.158Z,4.50
2019-03-12T08:50:09.916Z,4.70
2019-03-12T08:52:49.076Z,4.80
2019-03-12T08:55:22.216Z,4.90
2019-03-12T08:57:52.461Z,5.10
2019-03-12T09:00:25.674Z,5.20
2019-03-12T09:03:12.507Z,5.00
2019-03-12T09:05:45.677Z,4.80
2019-03-12T09:08:15.977Z,4.80
2019-03-12T09:10:46.159Z,4.80
2019-03-12T09:13:32.547Z,4.90
2019-03-12T09:16:11.884Z,5.10
2019-03-12T09:18:57.390Z,5.60
2019-03-12T09:21:44.107Z,5.90
2019-03-12T09:24:14.332Z,5.90
2019-03-12T09:26:44.570Z,6.70
2019-03-12T09:29:17.537Z,6.80
2019-03-12T09:31:47.736Z,6.90
2019-03-12T09:34:17.993Z,6.50
2019-03-12T09:36:48.197Z,6.50
2019-03-12T09:39:24.139Z,6.40
2019-03-12T09:42:00.233Z,6.80
2019-03-12T09:44:42.477Z,7.00
2019-03-12T09:47:21.513Z,7.00
2019-03-12T09:50:03.759Z,6.90
2019-03-12T09:52:42.886Z,7.00
2019-03-12T09:55:22.181Z,7.10
2019-03-12T09:58:01.220Z,7.00
2019-03-12T10:00:46.490Z,6.90
2019-03-12T10:03:28.983Z,6.90
2019-03-12T10:05:59.211Z,7.20
2019-03-12T10:08:41.679Z,7.30
2019-03-12T10:11:11.910Z,7.50
2019-03-12T10:13:58.276Z,8.10
2019-03-12T10:16:44.802Z,8.20
2019-03-12T10:19:15.027Z,8.70
2019-03-12T10:21:45.233Z,9.10
2019-03-12T10:24:24.810Z,9.30
2019-03-12T10:26:55.044Z,9.10
2019-03-12T10:29:37.251Z,9.00
2019-03-12T10:32:07.478Z,8.80
2019-03-12T10:34:55.743Z,8.80
2019-03-12T10:37:25.934Z,8.90
2019-03-12T10:40:16.133Z,8.40
2019-03-12T10:43:00.868Z,8.50
2019-03-12T10:45:39.955Z,8.40
2019-03-12T10:48:10.326Z,8.50
2019-03-12T10:50:38.993Z,8.80
2019-03-12T10:53:07.554Z,9.10
2019-03-12T10:55:36.157Z,9.20
2019-03-12T10:58:04.784Z,9.50
2019-03-12T11:00:33.838Z,9.70
2019-03-12T11:03:02.675Z,10.10
2019-03-12T11:05:44.754Z,10.50
2019-03-12T11:08:01.486Z,10.90
2019-03-12T11:10:30.160Z,11.00
2019-03-12T11:12:58.718Z,11.40
2019-03-12T11:15:30.076Z,11.30
2019-03-12T11:17:58.748Z,11.60
2019-03-12T11:20:28.166Z,11.80
2019-03-12T11:22:57.370Z,12.30
2019-03-12T11:25:28.036Z,12.40
2019-03-12T11:27:56.321Z,12.00
2019-03-12T11:30:24.955Z,11.50
2019-03-12T11:32:53.523Z,11.60
2019-03-12T11:35:23.660Z,11.70
2019-03-12T11:37:52.441Z,11.70
2019-03-12T11:40:25.724Z,11.80
2019-03-12T11:42:55.868Z,11.90
2019-03-12T11:45:35.647Z,12.30
2019-03-12T11:47:54.658Z,12.70
2019-03-12T11:50:24.806Z,12.50
2019-03-12T11:52:57.107Z,12.40
2019-03-12T11:55:23.608Z,12.40
2019-03-12T11:57:52.366Z,12.40
2019-03-12T12:00:27.572Z,12.60
2019-03-12T12:03:00.245Z,13.20
2019-03-12T12:05:27.506Z,13.40
2019-03-12T12:07:56.263Z,13.40
2019-03-12T12:10:26.552Z,13.50
2019-03-12T12:12:55.478Z,14.20
2019-03-12T12:15:25.489Z,13.80
2019-03-12T12:17:54.247Z,13.80
2019-03-12T12:20:29.780Z,13.80
2019-03-12T12:22:53.557Z,13.60
2019-03-12T12:25:22.195Z,14.00
2019-03-12T12:27:50.843Z,14.50
2019-03-12T12:30:23.663Z,14.70
2019-03-12T12:32:52.426Z,14.30
2019-03-12T12:35:21.017Z,14.00
2019-03-12T12:37:49.622Z,12.80
2019-03-12T12:40:22.388Z,12.80
2019-03-12T12:42:50.983Z,12.50
2019-03-12T12:45:31.283Z,12.40
2019-03-12T12:47:59.952Z,12.70
2019-03-12T12:50:28.522Z,12.50
2019-03-12T12:52:57.163Z,12.80
2019-03-12T12:55:25.724Z,13.20
2019-03-12T12:57:54.599Z,13.30
2019-03-12T13:00:27.165Z,13.30
2019-03-12T13:02:55.737Z,13.00
2019-03-12T13:05:24.732Z,13.00
2019-03-12T13:07:53.407Z,12.60
2019-03-12T13:10:24.582Z,12.80
2019-03-12T13:12:53.178Z,12.70
2019-03-12T13:15:21.768Z,12.50
2019-03-12T13:17:50.364Z,12.30
2019-03-12T13:20:18.935Z,11.80
2019-03-12T13:22:47.538Z,11.40
2019-03-12T13:25:18.199Z,11.50
2019-03-12T13:27:46.842Z,11.60
2019-03-12T13:30:20.456Z,11.30
2019-03-12T13:32:49.051Z,11.30
2019-03-12T13:35:18.562Z,11.20
2019-03-12T13:37:48.097Z,11.30
2019-03-12T13:40:27.127Z,11.20
2019-03-12T13:42:55.894Z,11.20
2019-03-12T13:45:30.017Z,11.70
2019-03-12T13:47:58.612Z,11.80
2019-03-12T13:50:27.502Z,11.70
2019-03-12T13:52:56.112Z,11.50
2019-03-12T13:55:24.748Z,11.30
2019-03-12T13:57:53.332Z,11.20
2019-03-12T14:00:24.965Z,11.10
2019-03-12T14:02:53.694Z,10.80
2019-03-12T14:05:23.928Z,10.80
2019-03-12T14:07:52.607Z,10.70
2019-03-12T14:10:23.013Z,10.80
2019-03-12T14:12:55.654Z,10.90
2019-03-12T14:15:31.586Z,10.90
2019-03-12T14:18:03.184Z,11.00
2019-03-12T14:20:53.292Z,10.90
2019-03-12T14:23:35.340Z,10.80
2019-03-12T14:26:03.979Z,10.80
2019-03-12T14:28:35.250Z,10.50
2019-03-12T14:31:04.722Z,10.40
2019-03-12T14:33:36.261Z,10.30
2019-03-12T14:36:04.946Z,10.30
2019-03-12T14:38:35.057Z,10.30
2019-03-12T14:41:07.759Z,10.10
2019-03-12T14:43:36.428Z,10.10
2019-03-12T14:46:07.196Z,10.00
2019-03-12T14:48:42.699Z,10.10
2019-03-12T14:51:43.485Z,10.00
2019-03-12T14:54:14.932Z,10.10
2019-03-12T14:56:46.573Z,10.10
2019-03-12T14:59:16.774Z,10.10
2019-03-12T15:01:45.543Z,10.10
2019-03-12T15:04:15.746Z,10.10
2019-03-12T15:06:49.179Z,10.20
2019-03-12T15:09:25.118Z,10.10
2019-03-12T15:21:18.131Z,10.20
2019-03-12T15:24:31.998Z,10.20
2019-03-12T15:30:07.712Z,9.90
2019-03-12T15:32:56.758Z,9.90
2019-03-12T15:44:35.259Z,9.50
2019-03-12T15:50:24.226Z,9.40
2019-03-12T15:55:44.243Z,9.30
2019-03-12T15:58:40.537Z,9.30
2019-03-12T16:01:33.245Z,9.30
2019-03-12T16:04:24.148Z,9.30
2019-03-12T16:07:24.183Z,9.30
2019-03-12T16:16:41.588Z,9.10
2019-03-12T16:19:22.624Z,9.10
2019-03-12T16:25:34.738Z,9.00
2019-03-12T16:28:16.449Z,9.00
2019-03-12T16:36:55.588Z,8.80
2019-03-12T16:39:40.442Z,8.80
2019-03-12T16:42:17.314Z,8.70
2019-03-12T16:47:47.179Z,8.70
2019-03-12T16:50:26.825Z,8.70
2019-03-12T16:53:07.393Z,8.60
2019-03-12T16:55:41.616Z,8.60
2019-03-12T17:01:02.615Z,8.40
2019-03-12T17:03:45.905Z,8.40
2019-03-12T17:06:19.257Z,8.40
2019-03-12T17:08:52.429Z,8.40
2019-03-12T17:11:21.030Z,8.40
2019-03-12T17:13:54.665Z,8.40
2019-03-12T17:16:26.030Z,8.30
2019-03-12T17:18:57.289Z,8.20
2019-03-12T17:21:27.469Z,8.20
2019-03-12T17:23:57.076Z,8.20
2019-03-12T17:26:25.665Z,8.20
2019-03-12T17:29:11.266Z,8.20
2019-03-12T17:34:57.937Z,8.20
2019-03-12T17:40:23.642Z,8.10
2019-03-12T17:43:06.972Z,8.00
2019-03-12T17:45:49.910Z,8.00
2019-03-12T17:48:20.097Z,7.90
2019-03-12T17:50:59.462Z,7.90
2019-03-12T17:53:29.650Z,7.90
2019-03-12T17:55:58.235Z,7.80
2019-03-12T17:58:26.912Z,7.90
2019-03-12T18:00:55.510Z,7.90
2019-03-12T18:03:24.112Z,7.90
2019-03-12T18:05:53.648Z,7.90
2019-03-12T18:08:22.225Z,7.90
2019-03-12T18:10:50.834Z,8.00
2019-03-12T18:13:19.394Z,8.00
2019-03-12T18:15:48.014Z,8.00
2019-03-12T18:18:18.387Z,8.00
2019-03-12T18:20:50.062Z,8.00
2019-03-12T18:23:18.663Z,8.00
2019-03-12T18:25:49.009Z,8.00
2019-03-12T18:28:17.647Z,7.90
2019-03-12T18:30:46.154Z,7.90
2019-03-12T18:33:14.723Z,7.90
2019-03-12T18:35:43.326Z,7.90
2019-03-12T18:38:11.895Z,7.90
2019-03-12T18:40:40.573Z,7.90
2019-03-12T18:43:09.120Z,7.90
2019-03-12T18:45:39.060Z,7.90
2019-03-12T18:48:07.634Z,7.80
2019-03-12T18:50:38.036Z,7.90
2019-03-12T18:53:06.706Z,7.90
2019-03-12T18:55:38.637Z,7.90
2019-03-12T18:58:08.302Z,7.90
2019-03-12T19:00:38.639Z,7.90
2019-03-12T19:03:08.818Z,7.90
2019-03-12T19:05:40.167Z,7.90
2019-03-12T19:08:09.115Z,7.90
2019-03-12T19:10:37.703Z,7.90
2019-03-12T19:13:06.412Z,7.80
2019-03-12T19:15:35.027Z,7.80
2019-03-12T19:18:03.601Z,7.90
2019-03-12T19:20:33.198Z,7.90
2019-03-12T19:23:01.866Z,7.90
2019-03-12T19:25:47.898Z,7.90
2019-03-12T19:28:16.653Z,7.90
2019-03-12T19:30:45.530Z,7.90
2019-03-12T19:33:16.091Z,7.90
2019-03-12T19:35:44.773Z,7.80
2019-03-12T19:38:13.646Z,7.80
2019-03-12T19:40:44.188Z,7.80
2019-03-12T19:43:12.919Z,7.80
2019-03-12T19:45:41.516Z,7.70
2019-03-12T19:48:10.082Z,7.70
2019-03-12T19:50:38.665Z,7.70
2019-03-12T19:53:07.609Z,7.70
2019-03-12T19:55:48.002Z,7.70
2019-03-12T19:58:16.561Z,7.60
2019-03-12T20:00:45.900Z,7.60
2019-03-12T20:03:15.234Z,7.60
2019-03-12T20:05:44.691Z,7.50
2019-03-12T20:08:13.254Z,7.50
2019-03-12T20:11:10.319Z,7.50
2019-03-12T20:13:58.806Z,7.50
2019-03-12T20:17:09.040Z,7.50
2019-03-12T20:19:49.592Z,7.40
2019-03-12T20:22:47.452Z,7.40
2019-03-12T20:25:35.604Z,7.30
2019-03-12T20:28:26.871Z,7.30
2019-03-12T20:31:07.571Z,7.30
2019-03-12T20:33:55.866Z,7.30
2019-03-12T20:36:33.364Z,7.30
2019-03-12T20:39:26.498Z,7.30
2019-03-12T20:41:58.187Z,7.30
2019-03-12T20:44:50.863Z,7.30
2019-03-12T20:47:45.174Z,7.30
2019-03-12T20:50:48.818Z,7.30
2019-03-12T20:53:54.095Z,7.30
2019-03-12T20:56:45.606Z,7.30
2019-03-12T20:59:20.137Z,7.20
2019-03-12T21:02:18.152Z,7.20
2019-03-12T21:05:10.710Z,7.20
2019-03-12T21:07:45.064Z,7.20
2019-03-12T21:10:50.337Z,7.20
2019-03-12T21:13:27.850Z,7.20
2019-03-12T21:16:25.231Z,7.20
2019-03-12T21:19:05.619Z,7.30
2019-03-12T21:22:03.594Z,7.20
2019-03-12T21:24:40.239Z,7.10
2019-03-12T21:27:45.254Z,7.20
2019-03-12T21:30:12.744Z,7.10
2019-03-12T21:32:41.340Z,7.20
2019-03-12T21:35:09.995Z,7.20
2019-03-12T21:37:38.591Z,7.20
2019-03-12T21:40:10.039Z,7.20
2019-03-12T21:42:38.630Z,7.30
2019-03-12T21:45:10.960Z,7.20
2019-03-12T21:47:39.570Z,7.20
2019-03-12T21:50:10.483Z,7.20
2019-03-12T21:52:39.319Z,7.20
2019-03-12T21:55:14.912Z,7.20
2019-03-12T21:57:43.506Z,7.20
2019-03-12T22:00:19.882Z,7.20
2019-03-12T22:02:48.466Z,7.20
2019-03-12T22:05:17.030Z,7.20
2019-03-12T22:07:45.616Z,7.20
2019-03-12T22:10:14.357Z,7.20
2019-03-12T22:12:43.197Z,7.20
2019-03-12T22:15:13.330Z,7.20
2019-03-12T22:17:41.890Z,7.20
2019-03-12T22:20:12.519Z,7.20
2019-03-12T22:22:45.243Z,7.20
2019-03-12T22:25:14.619Z,7.20
2019-03-12T22:27:43.194Z,7.20
2019-03-12T22:30:15.027Z,7.20
2019-03-12T22:32:43.590Z,7.20
2019-03-12T22:35:12.179Z,7.20
2019-03-12T22:37:41.131Z,7.20
2019-03-12T22:40:12.337Z,7.30
2019-03-12T22:42:40.968Z,7.20
2019-03-12T22:45:11.196Z,7.20
2019-03-12T22:47:40.100Z,7.20
2019-03-12T22:50:13.343Z,7.20
2019-03-12T22:53:20.251Z,7.20
2019-03-12T22:56:02.527Z,7.20
2019-03-12T22:58:45.481Z,7.30
2019-03-12T23:05:47.531Z,7.30
2019-03-12T23:14:14.103Z,7.40
2019-03-12T23:20:40.276Z,7.70
2019-03-12T23:23:26.455Z,7.80
2019-03-12T23:32:06.894Z,7.90
2019-03-12T23:40:38.094Z,7.90
2019-03-12T23:43:08.376Z,7.90
2019-03-12T23:46:10.285Z,7.90
2019-03-12T23:53:07.424Z,7.90
2019-03-12T23:56:09.313Z,8.00
